Time;durP1;ratioP1;P1;durP2;ratioP2;P2;SDS_P1;SDS_P2;PMS_P1;PMS_P2;Temp;Humidity;BMP_temperature;BMP_pressure;BME280_temperature;BME280_humidity;BME280_pressure;Samples;Min_cycle;Max_cycle;Signal;HPM_P1;HPM_P2
2022/03/18 00:02:23;;;;;;;23.73;7.75;;;;;;;;;;5008066;28;20037;-60
2022/03/18 00:04:50;;;;;;;23.83;7.35;;;;;;;;;;5025768;28;20033;-61
2022/03/18 00:07:16;;;;;;;23.42;8.10;;;;;;;;;;5040666;28;20037;-61
2022/03/18 00:09:42;;;;;;;20.88;7.78;;;;;;;;;;5023651;28;20487;-62
2022/03/18 00:12:12;;;;;;;22.42;8.23;;;;;;;;;;5026072;28;20356;-62
2022/03/18 00:14:41;;;;;;;26.63;8.73;;;;;;;;;;5022925;28;20053;-61
2022/03/18 00:17:08;;;;;;;24.23;7.93;;;;;;;;;;5025132;28;20045;-61
2022/03/18 00:19:35;;;;;;;26.55;8.43;;;;;;;;;;5024427;28;20459;-61
2022/03/18 00:22:01;;;;;;;28.92;8.90;;;;;;;;;;5024475;28;20042;-63
2022/03/18 00:24:28;;;;;;;25.08;8.73;;;;;;;;;;5025570;28;20488;-61
2022/03/18 00:26:54;;;;;;;27.65;8.68;;;;;;;;;;5026464;28;20061;-61
2022/03/18 00:29:20;;;;;;;26.85;8.73;;;;;;;;;;5024187;28;20056;-61
2022/03/18 00:31:47;;;;;;;26.63;8.80;;;;;;;;;;5026123;28;20385;-61
2022/03/18 00:34:13;;;;;;;28.50;9.48;;;;;;;;;;5024938;28;20120;-61
2022/03/18 00:36:39;;;;;;;28.35;9.02;;;;;;;;;;5025742;28;20076;-61
2022/03/18 00:39:06;;;;;;;27.48;9.48;;;;;;;;;;5025585;28;20087;-61
2022/03/18 00:41:32;;;;;;;26.55;9.43;;;;;;;;;;5025622;28;20096;-62
2022/03/18 00:43:58;;;;;;;28.23;8.93;;;;;;;;;;5027184;28;20052;-61
2022/03/18 00:46:24;;;;;;;28.85;8.93;;;;;;;;;;5028899;28;20085;-60
2022/03/18 00:54:22;;;;;;;20.95;7.63;;;;;;;;;;5028725;28;20594;-61
2022/03/18 00:56:48;;;;;;;23.40;8.77;;;;;;;;;;5027307;28;20045;-62
2022/03/18 00:59:14;;;;;;;32.30;9.07;;;;;;;;;;5029360;28;20037;-61
2022/03/18 01:01:40;;;;;;;23.48;8.52;;;;;;;;;;5030159;28;20038;-61
2022/03/18 01:04:06;;;;;;;22.98;8.70;;;;;;;;;;5028639;28;20037;-61
2022/03/18 01:06:33;;;;;;;22.50;8.68;;;;;;;;;;5028847;28;20053;-62
2022/03/18 01:08:59;;;;;;;27.02;9.13;;;;;;;;;;5026612;28;20056;-61
2022/03/18 01:11:25;;;;;;;32.42;9.63;;;;;;;;;;5028277;28;20056;-61
2022/03/18 01:13:51;;;;;;;24.70;8.43;;;;;;;;;;5028372;28;20045;-62
2022/03/18 01:16:17;;;;;;;26.45;8.93;;;;;;;;;;5028889;28;20120;-62
2022/03/18 01:18:43;;;;;;;25.88;9.23;;;;;;;;;;5029517;28;20072;-62
2022/03/18 01:21:09;;;;;;;31.77;10.07;;;;;;;;;;5027821;28;20073;-62
2022/03/18 01:23:35;;;;;;;32.60;10.20;;;;;;;;;;5029300;28;20030;-62
2022/03/18 01:26:01;;;;;;;25.17;10.50;;;;;;;;;;5027658;28;20065;-61
2022/03/18 01:28:29;;;;;;;30.00;10.27;;;;;;;;;;5028831;28;20045;-63
2022/03/18 01:30:56;;;;;;;31.05;10.82;;;;;;;;;;5028743;28;20045;-61
2022/03/18 01:33:22;;;;;;;30.70;10.40;;;;;;;;;;5027853;28;20049;-62
2022/03/18 01:35:48;;;;;;;28.10;11.18;;;;;;;;;;5027400;28;20048;-61
2022/03/18 01:38:14;;;;;;;33.40;12.45;;;;;;;;;;5028596;28;20045;-61
2022/03/18 01:40:40;;;;;;;31.45;12.65;;;;;;;;;;5027955;28;20163;-61
2022/03/18 01:43:10;;;;;;;28.08;13.27;;;;;;;;;;5028237;28;20045;-60
2022/03/18 01:45:36;;;;;;;34.47;13.15;;;;;;;;;;5028515;28;20040;-61
2022/03/18 01:48:03;;;;;;;31.98;12.18;;;;;;;;;;5011727;28;20073;-62
2022/03/18 01:50:30;;;;;;;29.85;12.65;;;;;;;;;;5027962;28;20160;-62
2022/03/18 01:52:56;;;;;;;25.20;13.20;;;;;;;;;;5029253;28;20041;-61
2022/03/18 01:55:24;;;;;;;32.97;13.40;;;;;;;;;;5027752;28;20041;-61
2022/03/18 01:57:50;;;;;;;38.47;13.55;;;;;;;;;;5025263;28;20129;-61
2022/03/18 02:00:18;;;;;;;37.80;13.75;;;;;;;;;;5011554;28;20034;-61
2022/03/18 02:02:44;;;;;;;32.50;13.13;;;;;;;;;;5029442;28;20038;-61
2022/03/18 02:05:11;;;;;;;27.42;12.82;;;;;;;;;;5028414;28;20077;-62
2022/03/18 02:07:37;;;;;;;30.40;12.80;;;;;;;;;;5010867;28;20617;-62
2022/03/18 02:10:04;;;;;;;32.22;14.13;;;;;;;;;;5027013;28;20499;-60
2022/03/18 02:12:30;;;;;;;31.88;12.80;;;;;;;;;;5028444;28;20073;-61
2022/03/18 02:14:56;;;;;;;27.48;14.07;;;;;;;;;;5027817;28;20414;-61
2022/03/18 02:17:22;;;;;;;31.17;13.70;;;;;;;;;;5028303;28;20106;-61
2022/03/18 02:19:49;;;;;;;29.88;14.50;;;;;;;;;;5025071;28;20153;-59
2022/03/18 02:22:15;;;;;;;28.88;13.90;;;;;;;;;;5028770;28;20025;-61
2022/03/18 02:24:41;;;;;;;32.58;13.70;;;;;;;;;;5027730;28;20435;-60
2022/03/18 02:27:08;;;;;;;33.90;14.75;;;;;;;;;;5027812;28;20081;-61
2022/03/18 02:29:34;;;;;;;35.20;14.85;;;;;;;;;;5008762;28;20099;-59
2022/03/18 02:32:00;;;;;;;31.27;15.07;;;;;;;;;;5029119;28;20042;-59
2022/03/18 02:34:27;;;;;;;30.00;14.48;;;;;;;;;;5027740;28;20045;-58
2022/03/18 02:36:53;;;;;;;38.28;14.80;;;;;;;;;;5010616;28;20037;-60
2022/03/18 02:39:19;;;;;;;31.95;14.95;;;;;;;;;;5027816;28;20046;-60
2022/03/18 02:41:45;;;;;;;26.23;13.98;;;;;;;;;;5027329;28;20040;-60
2022/03/18 02:44:11;;;;;;;30.05;13.88;;;;;;;;;;5028319;28;20033;-58
2022/03/18 02:46:37;;;;;;;36.15;15.60;;;;;;;;;;5026891;28;20041;-60
2022/03/18 02:49:04;;;;;;;32.45;14.32;;;;;;;;;;5028712;28;20041;-58
2022/03/18 02:51:30;;;;;;;33.75;14.60;;;;;;;;;;5027476;28;20391;-60
2022/03/18 02:53:57;;;;;;;32.85;15.10;;;;;;;;;;5028722;28;20049;-60
2022/03/18 02:56:23;;;;;;;31.25;15.30;;;;;;;;;;5028063;28;20046;-60
2022/03/18 02:58:50;;;;;;;35.33;16.15;;;;;;;;;;5041627;28;20494;-60
2022/03/18 03:01:16;;;;;;;31.00;13.43;;;;;;;;;;5026330;28;20495;-59
2022/03/18 03:03:42;;;;;;;28.45;13.73;;;;;;;;;;5028579;28;20037;-59
2022/03/18 03:08:53;;;;;;;28.15;14.45;;;;;;;;;;5027053;28;20065;-60
2022/03/18 03:11:21;;;;;;;22.35;12.52;;;;;;;;;;5026791;28;20084;-60
2022/03/18 03:13:47;;;;;;;27.25;13.30;;;;;;;;;;5027276;28;20076;-60
2022/03/18 03:16:13;;;;;;;26.52;13.43;;;;;;;;;;5028517;28;20044;-60
2022/03/18 03:18:39;;;;;;;24.30;12.73;;;;;;;;;;5034500;28;20081;-59
2022/03/18 03:21:05;;;;;;;22.17;12.45;;;;;;;;;;5028709;28;20403;-59
2022/03/18 03:23:32;;;;;;;23.70;12.43;;;;;;;;;;5027817;28;20110;-60
2022/03/18 03:25:58;;;;;;;20.23;11.80;;;;;;;;;;5028173;28;20148;-59
2022/03/18 03:28:24;;;;;;;26.20;12.55;;;;;;;;;;5028279;28;20483;-59
2022/03/18 03:30:50;;;;;;;25.40;11.38;;;;;;;;;;5028576;28;20088;-60
2022/03/18 03:33:17;;;;;;;22.00;10.77;;;;;;;;;;5027305;28;20037;-60
2022/03/18 03:35:44;;;;;;;23.05;10.85;;;;;;;;;;5027912;28;20711;-60
2022/03/18 03:38:10;;;;;;;25.13;10.57;;;;;;;;;;5028413;28;20436;-59
2022/03/18 03:40:37;;;;;;;20.88;10.32;;;;;;;;;;5025878;28;20128;-60
2022/03/18 03:43:04;;;;;;;19.50;9.23;;;;;;;;;;5043448;28;20052;-60
2022/03/18 03:45:30;;;;;;;23.75;10.73;;;;;;;;;;5027242;28;20053;-60
2022/03/18 03:47:56;;;;;;;26.88;10.40;;;;;;;;;;5028073;28;20099;-60
2022/03/18 03:50:22;;;;;;;21.80;9.48;;;;;;;;;;5010010;28;20107;-59
2022/03/18 03:52:48;;;;;;;23.05;10.88;;;;;;;;;;5027700;28;20041;-59
2022/03/18 03:55:14;;;;;;;20.65;10.45;;;;;;;;;;5027914;28;20033;-59
2022/03/18 03:57:41;;;;;;;20.90;9.80;;;;;;;;;;5026373;28;20103;-60
2022/03/18 04:00:08;;;;;;;22.10;9.95;;;;;;;;;;5027002;28;20047;-61
2022/03/18 04:02:34;;;;;;;21.63;9.60;;;;;;;;;;5027152;28;20117;-61
2022/03/18 04:05:00;;;;;;;22.08;9.63;;;;;;;;;;5026386;28;20087;-61
2022/03/18 04:07:26;;;;;;;16.55;8.55;;;;;;;;;;5024995;28;20051;-61
2022/03/18 04:09:54;;;;;;;17.13;8.63;;;;;;;;;;5026144;28;20439;-61
2022/03/18 04:12:23;;;;;;;22.00;7.93;;;;;;;;;;5026665;28;20041;-61
2022/03/18 04:14:51;;;;;;;18.67;8.82;;;;;;;;;;5025464;28;20049;-61
2022/03/18 04:17:17;;;;;;;17.15;8.38;;;;;;;;;;5026444;28;20049;-60
2022/03/18 04:19:43;;;;;;;14.93;7.60;;;;;;;;;;5028978;28;20034;-59
2022/03/18 04:22:09;;;;;;;18.67;7.50;;;;;;;;;;5030183;28;20137;-59
2022/03/18 04:24:36;;;;;;;14.13;7.57;;;;;;;;;;5031489;28;20060;-60
2022/03/18 04:27:02;;;;;;;19.65;8.38;;;;;;;;;;5012906;28;20117;-60
2022/03/18 04:29:31;;;;;;;17.30;7.60;;;;;;;;;;5031138;28;20045;-60
2022/03/18 04:31:58;;;;;;;19.58;7.15;;;;;;;;;;5029930;28;20045;-59
2022/03/18 04:34:24;;;;;;;15.95;8.82;;;;;;;;;;5031033;28;20449;-60
2022/03/18 04:36:50;;;;;;;17.40;8.13;;;;;;;;;;5029442;28;20487;-60
2022/03/18 04:39:17;;;;;;;16.73;8.18;;;;;;;;;;5030196;28;20045;-60
2022/03/18 04:41:43;;;;;;;16.85;8.63;;;;;;;;;;5030784;28;20460;-60
2022/03/18 04:44:09;;;;;;;17.20;8.18;;;;;;;;;;5029724;28;20041;-60
2022/03/18 04:46:35;;;;;;;20.55;8.50;;;;;;;;;;5030296;28;20455;-60
2022/03/18 04:49:02;;;;;;;14.95;7.95;;;;;;;;;;5030041;28;20042;-60
2022/03/18 04:51:28;;;;;;;16.77;9.02;;;;;;;;;;5028277;28;20041;-62
2022/03/18 04:53:54;;;;;;;18.25;9.18;;;;;;;;;;5029548;28;20041;-63
2022/03/18 04:59:06;;;;;;;16.20;8.73;;;;;;;;;;5027608;28;20121;-61
2022/03/18 05:01:33;;;;;;;18.67;8.95;;;;;;;;;;5045452;28;20043;-60
2022/03/18 05:03:59;;;;;;;23.70;10.40;;;;;;;;;;5029636;28;20069;-59
2022/03/18 05:06:26;;;;;;;19.25;9.90;;;;;;;;;;5029646;28;20037;-59
2022/03/18 05:08:52;;;;;;;19.00;9.95;;;;;;;;;;5030077;28;20076;-60
2022/03/18 05:11:18;;;;;;;14.38;9.68;;;;;;;;;;5028939;28;20455;-60
2022/03/18 05:13:44;;;;;;;19.92;10.65;;;;;;;;;;5029697;28;20060;-60
2022/03/18 05:16:10;;;;;;;17.83;10.27;;;;;;;;;;5026416;28;20084;-60
2022/03/18 05:18:37;;;;;;;17.58;10.40;;;;;;;;;;5029368;28;20077;-60
2022/03/18 05:21:04;;;;;;;20.75;11.57;;;;;;;;;;5029978;28;20043;-59
2022/03/18 05:23:32;;;;;;;19.52;10.88;;;;;;;;;;5028966;28;20081;-62
2022/03/18 05:25:59;;;;;;;19.67;10.90;;;;;;;;;;5026671;28;20510;-59
2022/03/18 05:28:26;;;;;;;19.48;11.43;;;;;;;;;;5029365;28;20049;-60
2022/03/18 05:30:52;;;;;;;21.67;11.60;;;;;;;;;;5009077;28;20049;-59
2022/03/18 05:33:19;;;;;;;23.98;12.13;;;;;;;;;;5028978;28;20079;-59
2022/03/18 05:35:45;;;;;;;27.75;12.20;;;;;;;;;;5029796;28;20041;-61
2022/03/18 05:38:11;;;;;;;20.42;12.00;;;;;;;;;;5029355;28;20124;-60
2022/03/18 05:40:37;;;;;;;24.20;13.00;;;;;;;;;;5045073;28;20041;-61
2022/03/18 05:43:03;;;;;;;20.05;13.73;;;;;;;;;;5027786;28;20493;-62
2022/03/18 05:45:30;;;;;;;22.67;13.90;;;;;;;;;;5028106;28;20046;-61
2022/03/18 05:47:56;;;;;;;25.60;13.65;;;;;;;;;;5029448;28;20049;-62
2022/03/18 05:50:22;;;;;;;20.58;14.55;;;;;;;;;;5028030;28;20516;-61
2022/03/18 05:52:48;;;;;;;23.60;14.52;;;;;;;;;;5028715;28;20498;-63
2022/03/18 05:55:14;;;;;;;23.55;15.55;;;;;;;;;;5027839;28;20045;-62
2022/03/18 05:57:40;;;;;;;24.92;16.33;;;;;;;;;;5028687;28;20043;-61
2022/03/18 06:00:07;;;;;;;26.15;15.75;;;;;;;;;;5028799;28;20486;-61
2022/03/18 06:02:36;;;;;;;22.50;16.00;;;;;;;;;;5028924;28;20049;-62
2022/03/18 06:05:02;;;;;;;24.73;16.45;;;;;;;;;;5027432;28;20041;-61
2022/03/18 06:07:29;;;;;;;24.55;15.85;;;;;;;;;;5027285;28;20038;-62
2022/03/18 06:12:39;;;;;;;29.80;17.50;;;;;;;;;;5026137;28;20202;-61
2022/03/18 06:15:06;;;;;;;27.45;18.35;;;;;;;;;;5027639;28;20045;-60
2022/03/18 06:17:32;;;;;;;29.88;18.48;;;;;;;;;;5029067;28;20041;-62
2022/03/18 06:19:58;;;;;;;27.58;16.83;;;;;;;;;;5026214;28;20042;-62
2022/03/18 06:22:24;;;;;;;31.27;16.70;;;;;;;;;;5028875;28;20041;-60
2022/03/18 06:24:50;;;;;;;29.85;17.02;;;;;;;;;;5027037;28;21160;-62
2022/03/18 06:27:16;;;;;;;29.50;17.90;;;;;;;;;;5011359;28;20047;-61
2022/03/18 06:29:43;;;;;;;27.83;16.92;;;;;;;;;;5029331;28;20184;-62
2022/03/18 06:32:09;;;;;;;27.10;15.32;;;;;;;;;;5026904;28;20076;-60
2022/03/18 06:34:35;;;;;;;21.75;15.82;;;;;;;;;;5028395;28;20045;-62
2022/03/18 06:37:01;;;;;;;28.25;16.73;;;;;;;;;;5027006;28;20056;-62
2022/03/18 06:39:28;;;;;;;22.70;15.57;;;;;;;;;;5025811;28;20440;-62
2022/03/18 06:41:54;;;;;;;23.95;13.88;;;;;;;;;;5027721;28;20033;-61
2022/03/18 06:44:20;;;;;;;20.27;13.35;;;;;;;;;;5029495;28;20032;-62
2022/03/18 06:46:47;;;;;;;22.40;14.15;;;;;;;;;;5027097;28;20111;-63
2022/03/18 06:49:13;;;;;;;20.80;13.15;;;;;;;;;;5027283;28;20041;-61
2022/03/18 06:51:39;;;;;;;21.45;13.15;;;;;;;;;;5026749;28;20084;-63
2022/03/18 06:54:05;;;;;;;20.27;13.20;;;;;;;;;;5028129;28;20491;-63
2022/03/18 06:56:32;;;;;;;21.13;11.77;;;;;;;;;;5027308;28;20136;-62
2022/03/18 06:58:58;;;;;;;22.95;12.80;;;;;;;;;;5026359;28;20133;-62
2022/03/18 07:01:24;;;;;;;19.65;11.43;;;;;;;;;;5026513;28;20434;-61
2022/03/18 07:03:51;;;;;;;22.92;11.52;;;;;;;;;;5028941;28;20045;-63
2022/03/18 07:06:17;;;;;;;17.63;10.05;;;;;;;;;;5028971;28;20411;-61
2022/03/18 07:08:43;;;;;;;17.13;10.35;;;;;;;;;;5029242;28;20048;-61
2022/03/18 07:11:13;;;;;;;20.77;10.40;;;;;;;;;;5026587;28;20126;-62
2022/03/18 07:13:41;;;;;;;19.33;9.45;;;;;;;;;;5027526;28;20183;-62
2022/03/18 07:18:51;;;;;;;19.55;10.88;;;;;;;;;;5028144;28;20917;-62
2022/03/18 07:21:17;;;;;;;18.05;10.23;;;;;;;;;;5026619;28;20052;-61
2022/03/18 07:23:43;;;;;;;16.35;8.75;;;;;;;;;;5026317;28;20541;-61
2022/03/18 07:26:10;;;;;;;18.13;9.10;;;;;;;;;;5025807;28;20061;-62
2022/03/18 07:28:36;;;;;;;16.35;9.48;;;;;;;;;;5026724;28;20044;-61
2022/03/18 07:31:02;;;;;;;17.20;8.98;;;;;;;;;;5026288;28;20029;-60
2022/03/18 07:33:28;;;;;;;17.27;10.45;;;;;;;;;;5026077;28;20041;-63
2022/03/18 07:35:54;;;;;;;14.57;9.15;;;;;;;;;;5025676;28;20033;-62
2022/03/18 07:38:20;;;;;;;15.70;8.80;;;;;;;;;;5025338;28;20065;-61
2022/03/18 07:40:47;;;;;;;16.58;9.05;;;;;;;;;;5024311;28;20095;-62
2022/03/18 07:43:13;;;;;;;14.52;8.55;;;;;;;;;;5025055;28;20136;-61
2022/03/18 07:45:39;;;;;;;16.23;8.85;;;;;;;;;;5027513;28;20036;-62
2022/03/18 07:48:08;;;;;;;17.33;9.27;;;;;;;;;;5027014;28;20044;-63
2022/03/18 07:50:35;;;;;;;17.13;8.57;;;;;;;;;;5026883;28;20595;-61
2022/03/18 07:53:03;;;;;;;21.63;9.30;;;;;;;;;;5023161;28;20091;-61
2022/03/18 07:55:30;;;;;;;17.73;9.57;;;;;;;;;;5029486;28;20041;-61
2022/03/18 07:57:57;;;;;;;22.10;9.95;;;;;;;;;;5032193;28;20491;-61
2022/03/18 08:00:23;;;;;;;17.48;8.88;;;;;;;;;;5031817;28;20045;-61
2022/03/18 08:02:50;;;;;;;18.40;8.75;;;;;;;;;;5031804;28;20391;-61
2022/03/18 08:05:17;;;;;;;16.88;8.38;;;;;;;;;;5032918;28;20487;-62
2022/03/18 08:07:46;;;;;;;20.90;8.88;;;;;;;;;;5028298;28;20045;-61
2022/03/18 08:10:14;;;;;;;19.70;8.93;;;;;;;;;;5027841;28;20042;-61
2022/03/18 08:12:41;;;;;;;23.63;8.77;;;;;;;;;;5013003;28;20046;-61
2022/03/18 08:15:17;;;;;;;18.50;8.52;;;;;;;;;;5028082;28;20045;-62
2022/03/18 08:17:44;;;;;;;21.02;8.30;;;;;;;;;;5024593;28;20056;-61
2022/03/18 08:20:13;;;;;;;19.40;7.75;;;;;;;;;;5032529;28;20046;-61
2022/03/18 08:22:41;;;;;;;18.17;8.07;;;;;;;;;;5031991;28;20129;-62
2022/03/18 08:25:07;;;;;;;19.50;7.93;;;;;;;;;;5032751;28;20053;-61
2022/03/18 08:27:34;;;;;;;17.40;8.30;;;;;;;;;;5032472;28;20445;-61
2022/03/18 08:30:00;;;;;;;24.02;8.25;;;;;;;;;;5031203;28;20080;-62
2022/03/18 08:32:27;;;;;;;19.25;8.20;;;;;;;;;;5031286;28;20043;-61
2022/03/18 08:34:54;;;;;;;21.73;8.57;;;;;;;;;;5031135;28;20088;-61
2022/03/18 08:37:56;;;;;;;19.25;8.85;;;;;;;;;;5030707;28;20132;-61
2022/03/18 08:40:06;;;;;;;16.15;7.53;;;;;;;;;;5030391;28;20415;-61
2022/03/18 08:42:32;;;;;;;23.02;7.78;;;;;;;;;;5030585;28;20037;-61
2022/03/18 08:44:59;;;;;;;16.17;7.22;;;;;;;;;;5031135;28;20045;-62
2022/03/18 08:47:25;;;;;;;21.65;8.43;;;;;;;;;;5030769;28;20030;-61
2022/03/18 08:49:51;;;;;;;19.02;6.95;;;;;;;;;;5029165;28;20076;-62
2022/03/18 08:52:17;;;;;;;18.73;6.57;;;;;;;;;;5031001;28;20047;-61
2022/03/18 08:54:44;;;;;;;21.05;7.55;;;;;;;;;;5029226;28;20478;-62
2022/03/18 08:57:10;;;;;;;18.88;7.88;;;;;;;;;;5031215;28;20041;-61
2022/03/18 08:59:36;;;;;;;17.08;7.38;;;;;;;;;;5030245;28;20257;-61
2022/03/18 09:02:02;;;;;;;28.45;9.50;;;;;;;;;;5031869;28;20033;-62
2022/03/18 09:04:28;;;;;;;20.75;7.75;;;;;;;;;;5031014;28;20041;-62
2022/03/18 09:06:54;;;;;;;20.45;7.78;;;;;;;;;;5030085;28;20041;-62
2022/03/18 09:09:20;;;;;;;19.67;7.75;;;;;;;;;;5030296;28;20134;-61
2022/03/18 09:11:46;;;;;;;19.50;7.97;;;;;;;;;;5031351;28;20120;-61
2022/03/18 09:14:13;;;;;;;20.52;7.03;;;;;;;;;;5032010;28;20044;-62
2022/03/18 09:16:39;;;;;;;18.88;6.97;;;;;;;;;;5031526;28;20048;-62
2022/03/18 09:19:05;;;;;;;18.52;7.55;;;;;;;;;;5031773;28;20077;-62
2022/03/18 09:21:31;;;;;;;18.67;7.25;;;;;;;;;;5029960;28;20057;-61
2022/03/18 09:23:58;;;;;;;20.80;8.02;;;;;;;;;;5031058;28;20045;-63
2022/03/18 09:26:24;;;;;;;19.55;7.35;;;;;;;;;;5031316;28;20062;-62
2022/03/18 09:28:50;;;;;;;19.75;7.65;;;;;;;;;;5031378;28;20152;-62
2022/03/18 09:31:16;;;;;;;24.52;8.73;;;;;;;;;;5029903;28;20134;-61
2022/03/18 09:33:42;;;;;;;17.88;7.80;;;;;;;;;;5030871;28;20046;-61
2022/03/18 09:36:11;;;;;;;17.13;7.75;;;;;;;;;;5030830;28;20125;-63
2022/03/18 09:38:38;;;;;;;19.67;8.48;;;;;;;;;;5029723;28;20049;-61
2022/03/18 09:41:05;;;;;;;18.33;8.05;;;;;;;;;;5030996;28;20128;-63
2022/03/18 09:43:35;;;;;;;19.80;8.30;;;;;;;;;;5031234;28;20049;-63
2022/03/18 09:46:02;;;;;;;21.38;8.50;;;;;;;;;;5030734;28;20037;-62
2022/03/18 09:48:29;;;;;;;20.30;8.13;;;;;;;;;;5031029;28;20095;-62
2022/03/18 09:50:55;;;;;;;21.88;8.15;;;;;;;;;;5031247;28;20483;-62
2022/03/18 09:53:22;;;;;;;19.27;8.13;;;;;;;;;;5031139;28;20081;-62
2022/03/18 09:55:51;;;;;;;18.85;7.90;;;;;;;;;;5030933;28;20045;-62
2022/03/18 09:58:17;;;;;;;19.25;7.22;;;;;;;;;;5030641;28;20601;-62
2022/03/18 10:00:43;;;;;;;16.63;7.78;;;;;;;;;;5030834;28;20049;-62
2022/03/18 10:03:16;;;;;;;19.15;7.15;;;;;;;;;;5029840;28;20495;-62
2022/03/18 10:05:46;;;;;;;20.80;7.38;;;;;;;;;;5029539;28;20056;-62
2022/03/18 10:08:13;;;;;;;20.05;6.47;;;;;;;;;;5031200;28;20515;-63
2022/03/18 10:10:49;;;;;;;24.10;7.18;;;;;;;;;;5031179;28;20103;-63
2022/03/18 10:13:16;;;;;;;21.40;6.53;;;;;;;;;;5030988;28;20041;-63
2022/03/18 10:15:44;;;;;;;19.23;6.18;;;;;;;;;;5029038;28;20050;-63
2022/03/18 10:18:11;;;;;;;22.58;6.63;;;;;;;;;;5030638;28;20045;-62
2022/03/18 10:20:40;;;;;;;17.45;5.85;;;;;;;;;;5029211;28;20041;-63
2022/03/18 10:23:19;;;;;;;24.77;7.03;;;;;;;;;;5030866;28;20585;-62
2022/03/18 10:25:58;;;;;;;21.63;7.13;;;;;;;;;;5030471;28;20140;-64
2022/03/18 10:28:35;;;;;;;25.05;6.68;;;;;;;;;;5030901;28;20067;-62
2022/03/18 10:31:19;;;;;;;21.88;6.72;;;;;;;;;;5012889;28;20068;-63
2022/03/18 10:37:05;;;;;;;27.17;6.82;;;;;;;;;;5030046;28;20092;-63
2022/03/18 10:39:32;;;;;;;23.38;4.82;;;;;;;;;;5028282;28;20462;-63
2022/03/18 10:42:02;;;;;;;27.27;4.35;;;;;;;;;;5029934;28;20112;-61
2022/03/18 10:44:47;;;;;;;21.10;3.85;;;;;;;;;;5030100;28;20091;-62
2022/03/18 10:47:28;;;;;;;24.45;4.57;;;;;;;;;;5010259;28;20125;-63
2022/03/18 10:50:13;;;;;;;21.15;3.85;;;;;;;;;;5027116;28;20488;-62
2022/03/18 10:52:48;;;;;;;24.08;4.30;;;;;;;;;;5029852;28;20522;-62
2022/03/18 10:55:15;;;;;;;19.63;3.63;;;;;;;;;;5029289;28;20036;-62
2022/03/18 10:57:48;;;;;;;21.77;3.70;;;;;;;;;;5027590;28;20072;-62
2022/03/18 11:00:14;;;;;;;18.00;4.10;;;;;;;;;;5029251;28;20041;-62
2022/03/18 11:02:42;;;;;;;23.05;4.32;;;;;;;;;;5029083;28;20481;-62
2022/03/18 11:05:08;;;;;;;23.75;4.10;;;;;;;;;;5028060;28;20087;-62
2022/03/18 11:07:41;;;;;;;22.15;3.67;;;;;;;;;;5028955;28;20063;-66
2022/03/18 11:12:54;;;;;;;24.58;4.75;;;;;;;;;;5009880;28;20056;-62
2022/03/18 11:15:20;;;;;;;21.02;4.55;;;;;;;;;;5018412;28;20045;-63
2022/03/18 11:17:47;;;;;;;19.75;4.10;;;;;;;;;;5028905;28;20045;-63
2022/03/18 11:20:14;;;;;;;23.45;4.00;;;;;;;;;;5029156;28;20484;-62
2022/03/18 11:22:41;;;;;;;18.63;3.47;;;;;;;;;;5027871;28;20124;-62
2022/03/18 11:25:09;;;;;;;21.40;3.97;;;;;;;;;;5028766;28;20806;-62
2022/03/18 11:27:41;;;;;;;20.88;3.42;;;;;;;;;;5028608;28;20041;-62
2022/03/18 11:30:22;;;;;;;15.43;3.13;;;;;;;;;;5029706;28;20096;-63
2022/03/18 11:33:07;;;;;;;21.30;3.90;;;;;;;;;;5029205;28;20047;-62
2022/03/18 11:35:48;;;;;;;23.77;4.35;;;;;;;;;;5028014;28;20434;-62
2022/03/18 11:38:19;;;;;;;22.38;3.45;;;;;;;;;;5011421;28;20045;-62
2022/03/18 11:41:11;;;;;;;23.38;3.45;;;;;;;;;;5024552;28;20046;-61
2022/03/18 11:43:49;;;;;;;19.83;4.17;;;;;;;;;;5010975;28;20100;-62
2022/03/18 11:48:46;;;;;;;22.30;3.58;;;;;;;;;;5029113;28;20503;-61
2022/03/18 11:51:31;;;;;;;21.70;3.65;;;;;;;;;;5030070;28;20481;-61
2022/03/18 11:54:01;;;;;;;23.27;4.03;;;;;;;;;;5028835;28;20048;-62
2022/03/18 11:56:45;;;;;;;25.05;3.83;;;;;;;;;;5027544;28;20053;-61
2022/03/18 11:59:31;;;;;;;25.08;3.95;;;;;;;;;;5028039;28;20315;-61
2022/03/18 12:02:04;;;;;;;19.65;3.65;;;;;;;;;;5029244;28;20046;-61
2022/03/18 12:04:33;;;;;;;22.40;3.65;;;;;;;;;;5028741;28;20476;-61
2022/03/18 12:07:18;;;;;;;19.27;3.65;;;;;;;;;;5028527;28;20046;-60
2022/03/18 12:09:55;;;;;;;25.45;3.90;;;;;;;;;;5028803;28;20089;-62
2022/03/18 12:12:21;;;;;;;21.35;3.53;;;;;;;;;;5027695;28;20057;-61
2022/03/18 12:14:47;;;;;;;17.13;3.10;;;;;;;;;;5026823;28;20060;-63
2022/03/18 12:17:14;;;;;;;20.00;3.50;;;;;;;;;;5028583;28;20048;-63
2022/03/18 12:19:40;;;;;;;23.55;3.22;;;;;;;;;;5026590;28;20049;-62
2022/03/18 12:22:06;;;;;;;19.52;2.67;;;;;;;;;;5010754;28;20069;-63
2022/03/18 12:24:32;;;;;;;25.23;3.30;;;;;;;;;;5028006;28;20041;-63
2022/03/18 12:27:02;;;;;;;26.20;3.90;;;;;;;;;;5026572;28;20092;-63
2022/03/18 12:29:29;;;;;;;19.35;3.13;;;;;;;;;;5028094;28;20041;-62
2022/03/18 12:32:05;;;;;;;18.45;3.60;;;;;;;;;;5024143;28;20474;-60
2022/03/18 12:34:31;;;;;;;20.48;3.58;;;;;;;;;;5016244;28;20061;-61
2022/03/18 12:36:57;;;;;;;23.30;3.28;;;;;;;;;;5041054;28;20068;-63
2022/03/18 12:39:29;;;;;;;18.33;3.35;;;;;;;;;;5021713;28;20037;-61
2022/03/18 12:42:07;;;;;;;20.60;3.38;;;;;;;;;;5031981;28;20502;-62
2022/03/18 12:44:33;;;;;;;18.20;2.70;;;;;;;;;;5031836;28;20522;-62
2022/03/18 12:47:00;;;;;;;19.48;3.58;;;;;;;;;;5032047;28;20357;-62
2022/03/18 12:49:36;;;;;;;20.90;2.80;;;;;;;;;;5032094;28;20041;-62
2022/03/18 12:52:07;;;;;;;20.05;3.35;;;;;;;;;;5031870;28;20046;-62
2022/03/18 12:54:33;;;;;;;20.17;3.65;;;;;;;;;;5031241;28;20123;-62
2022/03/18 12:57:02;;;;;;;21.23;3.25;;;;;;;;;;5029941;28;20047;-62
2022/03/18 12:59:29;;;;;;;20.85;3.42;;;;;;;;;;5030041;28;20060;-63
2022/03/18 13:01:55;;;;;;;20.50;3.42;;;;;;;;;;5030054;28;20037;-63
2022/03/18 13:04:22;;;;;;;21.65;3.08;;;;;;;;;;5029414;28;20086;-62
2022/03/18 13:06:56;;;;;;;20.52;3.33;;;;;;;;;;5031486;28;20045;-64
2022/03/18 13:09:22;;;;;;;22.00;3.20;;;;;;;;;;5031420;28;20057;-63
2022/03/18 13:11:49;;;;;;;21.73;3.88;;;;;;;;;;5030080;28;20106;-61
2022/03/18 13:14:28;;;;;;;20.35;3.30;;;;;;;;;;5031559;28;20477;-61
2022/03/18 13:16:54;;;;;;;21.92;4.72;;;;;;;;;;5030357;28;20120;-64
2022/03/18 13:19:20;;;;;;;19.80;2.92;;;;;;;;;;5030519;28;20047;-64
2022/03/18 13:21:49;;;;;;;19.67;3.50;;;;;;;;;;5030290;28;20041;-62
2022/03/18 13:24:15;;;;;;;17.83;3.05;;;;;;;;;;5030255;28;20087;-63
2022/03/18 13:26:45;;;;;;;18.80;3.28;;;;;;;;;;5029972;28;20065;-64
2022/03/18 13:29:11;;;;;;;22.42;3.28;;;;;;;;;;5031804;28;20124;-63
2022/03/18 13:34:30;;;;;;;20.77;3.05;;;;;;;;;;5029363;28;20053;-63
2022/03/18 13:37:09;;;;;;;19.15;3.03;;;;;;;;;;5026146;28;20054;-62
2022/03/18 13:39:35;;;;;;;22.30;3.53;;;;;;;;;;5028910;28;20116;-63
2022/03/18 13:42:01;;;;;;;24.83;3.13;;;;;;;;;;5029092;28;20049;-63
2022/03/18 13:44:43;;;;;;;24.50;3.28;;;;;;;;;;5030826;28;20038;-63
2022/03/18 13:47:09;;;;;;;21.63;3.17;;;;;;;;;;5031678;28;20037;-62
2022/03/18 13:49:36;;;;;;;23.73;3.20;;;;;;;;;;5029272;28;20076;-62
2022/03/18 13:52:06;;;;;;;22.75;3.00;;;;;;;;;;5029592;28;20238;-63
2022/03/18 13:54:42;;;;;;;20.45;2.95;;;;;;;;;;5030327;28;20038;-62
2022/03/18 13:57:08;;;;;;;21.95;3.22;;;;;;;;;;5029705;28;20057;-62
2022/03/18 13:59:34;;;;;;;17.77;2.60;;;;;;;;;;5030879;28;20052;-64
2022/03/18 14:02:03;;;;;;;16.73;2.35;;;;;;;;;;5026819;28;20562;-62
2022/03/18 14:04:41;;;;;;;21.00;2.50;;;;;;;;;;5029255;28;20037;-62
2022/03/18 14:07:09;;;;;;;17.98;2.70;;;;;;;;;;5028997;28;20048;-64
2022/03/18 14:09:35;;;;;;;17.60;2.90;;;;;;;;;;5030489;28;20049;-62
2022/03/18 14:12:14;;;;;;;20.83;2.70;;;;;;;;;;5030747;28;20555;-62
2022/03/18 14:14:41;;;;;;;20.90;3.25;;;;;;;;;;5030882;28;20033;-62
2022/03/18 14:17:11;;;;;;;19.00;2.60;;;;;;;;;;5028253;28;20052;-62
2022/03/18 14:19:48;;;;;;;20.83;3.20;;;;;;;;;;5028499;28;20132;-62
2022/03/18 14:22:32;;;;;;;22.52;3.13;;;;;;;;;;5029554;28;20049;-63
2022/03/18 14:24:59;;;;;;;22.52;3.13;;;;;;;;;;5023767;28;20075;-63
2022/03/18 14:27:27;;;;;;;21.88;3.10;;;;;;;;;;5026115;28;20073;-62
2022/03/18 14:29:53;;;;;;;23.60;3.40;;;;;;;;;;5010743;28;20550;-63
2022/03/18 14:32:19;;;;;;;20.60;3.72;;;;;;;;;;5009344;28;20050;-62
2022/03/18 14:34:48;;;;;;;22.38;3.65;;;;;;;;;;5010659;28;20046;-62
2022/03/18 14:37:15;;;;;;;24.48;3.40;;;;;;;;;;5009133;28;20403;-62
2022/03/18 14:39:41;;;;;;;23.02;3.53;;;;;;;;;;5010661;28;20551;-62
2022/03/18 14:42:07;;;;;;;23.70;3.53;;;;;;;;;;5010197;28;20050;-63
2022/03/18 14:44:35;;;;;;;26.48;3.60;;;;;;;;;;5009498;28;20309;-62
2022/03/18 14:47:01;;;;;;;22.58;3.20;;;;;;;;;;5010305;28;20452;-62
2022/03/18 14:49:27;;;;;;;23.30;3.47;;;;;;;;;;5010895;28;20046;-62
2022/03/18 14:51:53;;;;;;;26.25;3.90;;;;;;;;;;5008762;28;20050;-62
2022/03/18 14:56:17;;;;;;;27.02;3.85;;;;;;;;;;5010332;28;20056;-62
2022/03/18 14:57:05;;;;;;;24.10;3.75;;;;;;;;;;5008400;28;20053;-63
2022/03/18 14:59:31;;;;;;;27.83;4.07;;;;;;;;;;5008550;28;20133;-62